createdAt,value
2019-04-29T00:01:13.804Z,5.20
2019-04-29T00:03:43.483Z,5.20
2019-04-29T00:06:12.885Z,5.20
2019-04-29T00:08:42.375Z,5.20
2019-04-29T00:11:11.837Z,5.10
2019-04-29T00:13:41.253Z,5.20
2019-04-29T00:16:20.130Z,5.20
2019-04-29T00:19:08.747Z,5.20
2019-04-29T00:21:38.915Z,5.20
2019-04-29T00:24:08.695Z,5.20
2019-04-29T00:26:38.125Z,5.10
2019-04-29T00:29:07.952Z,5.00
2019-04-29T00:31:37.336Z,5.00
2019-04-29T00:34:07.175Z,5.00
2019-04-29T00:36:42.951Z,5.10
2019-04-29T00:39:29.961Z,5.00
2019-04-29T00:42:11.282Z,5.00
2019-04-29T00:44:40.673Z,5.00
2019-04-29T00:47:10.058Z,5.10
2019-04-29T00:49:39.408Z,5.00
2019-04-29T00:52:08.777Z,5.10
2019-04-29T00:54:46.434Z,5.10
2019-04-29T00:57:16.123Z,5.10
2019-04-29T00:59:45.539Z,5.10
2019-04-29T01:02:14.921Z,5.00
2019-04-29T01:04:44.620Z,5.00
2019-04-29T01:07:14.006Z,4.90
2019-04-29T01:09:43.472Z,5.00
2019-04-29T01:12:13.142Z,4.90
2019-04-29T01:14:42.567Z,4.90
2019-04-29T01:17:11.943Z,4.90
2019-04-29T01:19:41.348Z,4.90
2019-04-29T01:22:10.725Z,4.90
2019-04-29T01:24:40.411Z,4.80
2019-04-29T01:27:32.317Z,4.80
2019-04-29T01:30:02.207Z,4.80
2019-04-29T01:32:31.895Z,4.80
2019-04-29T01:35:01.647Z,4.80
2019-04-29T01:37:37.496Z,4.80
2019-04-29T01:40:29.600Z,4.70
2019-04-29T01:42:59.000Z,4.70
2019-04-29T01:45:28.708Z,4.70
2019-04-29T01:47:58.096Z,4.70
2019-04-29T01:50:28.290Z,4.70
2019-04-29T01:52:57.816Z,4.80
2019-04-29T01:55:28.422Z,4.70
2019-04-29T01:57:57.909Z,4.70
2019-04-29T02:00:27.321Z,4.70
2019-04-29T02:02:56.976Z,4.80
2019-04-29T02:05:26.380Z,4.70
2019-04-29T02:07:56.188Z,4.60
2019-04-29T02:10:33.558Z,4.70
2019-04-29T02:13:02.975Z,4.70
2019-04-29T02:15:32.675Z,4.70
2019-04-29T02:18:02.068Z,4.60
2019-04-29T02:20:32.273Z,4.60
2019-04-29T02:23:29.456Z,4.60
2019-04-29T02:25:58.880Z,4.50
2019-04-29T02:28:28.289Z,4.60
2019-04-29T02:30:59.261Z,4.60
2019-04-29T02:33:28.899Z,4.60
2019-04-29T02:35:58.575Z,4.60
2019-04-29T02:38:34.970Z,4.60
2019-04-29T02:41:17.601Z,4.50
2019-04-29T02:43:48.780Z,4.50
2019-04-29T02:46:18.180Z,4.50
2019-04-29T02:48:47.677Z,4.40
2019-04-29T02:51:36.046Z,4.40
2019-04-29T02:54:05.439Z,4.30
2019-04-29T02:56:34.862Z,4.30
2019-04-29T02:59:05.442Z,4.20
2019-04-29T03:01:52.314Z,4.10
2019-04-29T03:04:24.706Z,4.10
2019-04-29T03:06:54.117Z,4.20
2019-04-29T03:09:23.839Z,4.20
2019-04-29T03:11:53.272Z,4.30
2019-04-29T03:14:23.245Z,4.30
2019-04-29T03:16:53.065Z,4.20
2019-04-29T03:19:30.473Z,4.20
2019-04-29T03:22:01.710Z,4.10
2019-04-29T03:24:31.354Z,4.20
2019-04-29T03:27:01.060Z,4.20
2019-04-29T03:29:30.708Z,4.20
2019-04-29T03:32:00.141Z,4.20
2019-04-29T03:34:29.531Z,4.20
2019-04-29T03:36:59.236Z,4.20
2019-04-29T03:39:28.609Z,4.20
2019-04-29T03:41:58.146Z,4.20
2019-04-29T03:44:27.538Z,4.30
2019-04-29T03:46:56.961Z,4.30
2019-04-29T03:49:26.337Z,4.20
2019-04-29T03:51:56.024Z,4.30
2019-04-29T03:54:25.668Z,4.30
2019-04-29T03:56:55.089Z,4.30
2019-04-29T03:59:24.471Z,4.40
2019-04-29T04:02:12.829Z,4.40
2019-04-29T04:05:19.117Z,4.40
2019-04-29T04:07:55.359Z,4.40
2019-04-29T04:10:25.378Z,4.40
2019-04-29T04:12:55.163Z,4.40
2019-04-29T04:15:24.545Z,4.40
2019-04-29T04:18:01.956Z,4.40
2019-04-29T04:20:31.340Z,4.30
2019-04-29T04:23:00.752Z,4.30
2019-04-29T04:25:30.131Z,4.30
2019-04-29T04:27:59.543Z,4.40
2019-04-29T04:30:29.207Z,4.30
2019-04-29T04:32:59.025Z,4.30
2019-04-29T04:35:28.425Z,4.30
2019-04-29T04:37:57.856Z,4.30
2019-04-29T04:40:34.290Z,4.30
2019-04-29T04:43:03.708Z,4.40
2019-04-29T04:45:33.389Z,4.40
2019-04-29T04:48:02.790Z,4.50
2019-04-29T04:50:32.177Z,4.50
2019-04-29T04:53:01.599Z,4.60
2019-04-29T04:55:33.438Z,4.70
2019-04-29T04:58:02.860Z,4.60
2019-04-29T05:00:33.815Z,4.70
2019-04-29T05:03:03.234Z,4.70
2019-04-29T05:05:33.246Z,4.80
2019-04-29T05:08:02.776Z,4.90
2019-04-29T05:10:32.365Z,4.90
2019-04-29T05:13:01.809Z,5.00
2019-04-29T05:15:31.470Z,4.90
2019-04-29T05:18:00.880Z,4.90
2019-04-29T05:20:30.273Z,5.10
2019-04-29T05:22:59.958Z,5.30
2019-04-29T05:25:30.427Z,5.20
2019-04-29T05:27:59.970Z,5.30
2019-04-29T05:30:29.470Z,5.30
2019-04-29T05:32:58.893Z,5.30
2019-04-29T05:35:46.026Z,5.30
2019-04-29T05:38:34.694Z,5.30
2019-04-29T05:41:04.093Z,5.50
2019-04-29T05:43:45.557Z,5.60
2019-04-29T05:46:31.281Z,5.60
2019-04-29T05:49:02.402Z,5.60
2019-04-29T05:51:42.688Z,5.70
2019-04-29T05:54:12.985Z,5.70
2019-04-29T05:56:42.392Z,6.00
2019-04-29T05:59:12.817Z,6.00
2019-04-29T06:01:47.250Z,6.00
2019-04-29T06:04:16.245Z,6.00
2019-04-29T06:06:45.437Z,6.00
2019-04-29T06:09:16.964Z,6.10
2019-04-29T06:11:46.129Z,6.00
2019-04-29T06:14:15.602Z,6.20
2019-04-29T06:16:45.012Z,6.30
2019-04-29T06:19:14.423Z,6.50
2019-04-29T06:21:44.132Z,6.70
2019-04-29T06:24:13.582Z,6.80
2019-04-29T06:26:43.822Z,6.90
2019-04-29T06:29:13.562Z,6.90
2019-04-29T06:31:42.973Z,7.00
2019-04-29T06:34:12.419Z,7.20
2019-04-29T06:36:41.780Z,7.30
2019-04-29T06:39:11.514Z,7.50
2019-04-29T06:41:45.508Z,7.60
2019-04-29T06:44:16.567Z,7.60
2019-04-29T06:46:43.592Z,7.70
2019-04-29T06:49:13.019Z,7.80
2019-04-29T06:51:42.786Z,8.00
2019-04-29T06:54:12.213Z,8.00
2019-04-29T06:56:41.624Z,8.00
2019-04-29T06:59:12.290Z,8.10
2019-04-29T07:01:42.069Z,8.20
2019-04-29T07:04:11.472Z,8.40
2019-04-29T07:06:41.270Z,8.30
2019-04-29T07:09:10.660Z,8.40
2019-04-29T07:11:40.353Z,8.20
2019-04-29T07:14:10.033Z,8.30
2019-04-29T07:16:39.480Z,8.10
2019-04-29T07:19:08.876Z,8.20
2019-04-29T07:21:41.811Z,8.30
2019-04-29T07:24:09.859Z,8.50
2019-04-29T07:26:39.561Z,8.40
2019-04-29T07:29:08.951Z,8.60
2019-04-29T07:31:38.405Z,8.70
2019-04-29T07:34:08.522Z,8.60
2019-04-29T07:36:38.004Z,8.60
2019-04-29T07:39:07.817Z,8.70
2019-04-29T07:41:37.562Z,8.80
2019-04-29T07:44:06.941Z,8.90
2019-04-29T07:46:56.636Z,8.80
2019-04-29T07:49:21.049Z,8.50
2019-04-29T07:51:50.483Z,8.70
2019-04-29T07:54:20.150Z,8.70
2019-04-29T07:56:49.570Z,8.70
2019-04-29T07:59:19.208Z,8.80
2019-04-29T08:01:48.636Z,8.70
2019-04-29T08:04:18.023Z,8.70
2019-04-29T08:06:47.549Z,8.90
2019-04-29T08:09:17.148Z,9.20
2019-04-29T08:11:48.287Z,9.30
2019-04-29T08:14:19.614Z,9.30
2019-04-29T08:16:49.040Z,9.20
2019-04-29T08:19:18.460Z,9.30
2019-04-29T08:21:49.702Z,9.50
2019-04-29T08:24:18.924Z,9.70
2019-04-29T08:26:48.340Z,9.60
2019-04-29T08:29:18.207Z,9.60
2019-04-29T08:31:51.949Z,9.70
2019-04-29T08:34:23.057Z,10.10
2019-04-29T08:36:50.320Z,10.00
2019-04-29T08:39:19.711Z,10.10
2019-04-29T08:41:49.114Z,10.30
2019-04-29T08:44:40.307Z,10.20
2019-04-29T08:47:31.638Z,10.30
2019-04-29T08:49:59.711Z,10.30
2019-04-29T08:52:29.121Z,10.40
2019-04-29T08:54:59.073Z,10.40
2019-04-29T08:57:31.716Z,10.80
2019-04-29T08:59:59.569Z,10.90
2019-04-29T09:02:34.994Z,10.80
2019-04-29T09:05:00.373Z,10.90
2019-04-29T09:07:30.146Z,11.30
2019-04-29T09:10:02.039Z,11.50
2019-04-29T09:12:30.913Z,11.50
2019-04-29T09:15:00.328Z,11.20
2019-04-29T09:17:30.043Z,11.50
2019-04-29T09:19:59.426Z,11.80
2019-04-29T09:22:30.660Z,12.00
2019-04-29T09:25:21.541Z,12.20
2019-04-29T09:27:50.030Z,12.40
2019-04-29T09:30:19.690Z,12.20
2019-04-29T09:32:49.099Z,11.90
2019-04-29T09:35:18.498Z,11.50
2019-04-29T09:37:47.919Z,11.70
2019-04-29T09:40:19.141Z,11.50
2019-04-29T09:42:57.217Z,11.80
2019-04-29T09:45:35.337Z,11.50
2019-04-29T09:48:05.118Z,11.60
2019-04-29T09:50:39.085Z,12.10
2019-04-29T09:53:05.660Z,12.20
2019-04-29T09:55:35.656Z,12.50
2019-04-29T09:58:06.429Z,12.40
2019-04-29T10:00:43.131Z,13.00
2019-04-29T10:03:20.084Z,12.60
2019-04-29T10:06:02.368Z,13.10
2019-04-29T10:08:31.782Z,13.50
2019-04-29T10:11:01.476Z,13.30
2019-04-29T10:13:30.941Z,13.40
2019-04-29T10:16:19.571Z,13.50
2019-04-29T10:19:00.706Z,13.20
2019-04-29T10:21:30.864Z,13.00
2019-04-29T10:24:00.610Z,13.00
2019-04-29T10:26:30.011Z,13.10
2019-04-29T10:29:03.788Z,12.80
2019-04-29T10:31:33.201Z,13.10
2019-04-29T10:34:03.294Z,13.60
2019-04-29T10:36:32.698Z,13.60
2019-04-29T10:39:14.149Z,13.50
2019-04-29T10:41:45.006Z,13.50
2019-04-29T10:44:25.556Z,13.30
2019-04-29T10:47:23.217Z,13.30
2019-04-29T10:50:02.426Z,13.50
2019-04-29T10:52:34.493Z,13.90
2019-04-29T10:55:02.880Z,13.50
2019-04-29T10:57:32.304Z,13.40
2019-04-29T11:00:09.338Z,13.30
2019-04-29T11:02:40.152Z,13.70
2019-04-29T11:05:59.956Z,13.60
2019-04-29T11:08:45.326Z,13.90
2019-04-29T11:11:22.723Z,13.90
2019-04-29T11:13:50.336Z,13.90
2019-04-29T11:16:18.027Z,13.70
2019-04-29T11:18:47.531Z,13.80
2019-04-29T11:21:17.301Z,14.30
2019-04-29T11:24:03.247Z,13.90
2019-04-29T11:27:11.580Z,13.70
2019-04-29T11:29:35.897Z,13.70
2019-04-29T11:32:07.414Z,13.70
2019-04-29T11:34:59.248Z,14.10
2019-04-29T11:37:29.062Z,14.00
2019-04-29T11:39:58.735Z,14.30
2019-04-29T11:42:31.790Z,14.00
2019-04-29T11:45:01.966Z,14.40
2019-04-29T11:47:30.832Z,14.70
2019-04-29T11:50:18.850Z,13.90
2019-04-29T11:52:48.246Z,13.90
2019-04-29T11:55:20.108Z,13.70
2019-04-29T11:57:54.541Z,14.10
2019-04-29T12:00:41.744Z,14.30
2019-04-29T12:03:14.498Z,14.50
2019-04-29T12:05:47.777Z,14.50
2019-04-29T12:08:18.475Z,13.90
2019-04-29T12:11:05.676Z,14.00
2019-04-29T12:13:28.327Z,13.90
2019-04-29T12:16:05.555Z,14.10
2019-04-29T12:18:42.443Z,14.20
2019-04-29T12:21:30.893Z,14.20
2019-04-29T12:24:03.270Z,14.40
2019-04-29T12:26:35.565Z,14.10
2019-04-29T12:29:03.934Z,14.20
2019-04-29T12:32:07.509Z,14.30
2019-04-29T12:34:44.307Z,14.30
2019-04-29T12:37:35.437Z,14.10
2019-04-29T12:40:36.531Z,14.20
2019-04-29T12:43:24.885Z,14.10
2019-04-29T12:46:17.161Z,14.40
2019-04-29T12:48:46.810Z,14.60
2019-04-29T12:51:17.079Z,14.60
2019-04-29T12:53:46.941Z,14.60
2019-04-29T12:56:18.917Z,14.30
2019-04-29T12:58:50.647Z,14.40
2019-04-29T13:01:50.235Z,14.20
2019-04-29T13:04:04.351Z,13.80
2019-04-29T13:06:57.195Z,14.10
2019-04-29T13:09:36.785Z,14.10
2019-04-29T13:12:18.936Z,14.60
2019-04-29T13:14:39.753Z,14.80
2019-04-29T13:17:37.732Z,14.50
2019-04-29T13:20:11.742Z,14.30
2019-04-29T13:22:40.444Z,14.60
2019-04-29T13:25:10.181Z,14.50
2019-04-29T13:27:39.565Z,14.30
2019-04-29T13:32:42.061Z,14.70
2019-04-29T13:33:22.654Z,14.50
2019-04-29T13:35:12.724Z,14.60
2019-04-29T13:37:42.283Z,14.60
2019-04-29T13:40:12.179Z,14.50
2019-04-29T13:42:48.464Z,14.50
2019-04-29T13:45:20.001Z,14.30
2019-04-29T13:48:01.842Z,14.50
2019-04-29T13:50:51.090Z,14.60
2019-04-29T13:53:20.494Z,14.20
2019-04-29T13:56:10.041Z,14.20
2019-04-29T13:58:26.962Z,14.30
2019-04-29T14:01:21.114Z,14.20
2019-04-29T14:03:49.607Z,14.40
2019-04-29T14:06:19.925Z,14.10
2019-04-29T14:08:49.749Z,14.30
2019-04-29T14:11:21.937Z,13.90
2019-04-29T14:13:50.603Z,13.80
2019-04-29T14:16:20.029Z,13.80
2019-04-29T14:18:50.025Z,13.90
2019-04-29T14:21:19.939Z,13.80
2019-04-29T14:23:49.634Z,13.60
2019-04-29T14:26:19.055Z,13.50
2019-04-29T14:28:48.437Z,13.30
2019-04-29T14:31:18.757Z,13.10
2019-04-29T14:33:55.786Z,13.00
2019-04-29T14:36:26.350Z,12.70
2019-04-29T14:38:55.829Z,12.30
2019-04-29T14:41:26.545Z,12.00
2019-04-29T14:44:30.273Z,12.00
2019-04-29T14:47:07.724Z,11.90
2019-04-29T14:49:41.228Z,11.70
2019-04-29T14:52:13.109Z,11.80
2019-04-29T14:54:43.580Z,12.10
2019-04-29T14:57:13.003Z,12.50
2019-04-29T14:59:42.577Z,12.80
2019-04-29T15:02:19.228Z,13.00
2019-04-29T15:04:49.149Z,13.30
2019-04-29T15:07:18.604Z,13.40
2019-04-29T15:09:58.060Z,13.60
2019-04-29T15:13:06.689Z,13.60
2019-04-29T15:16:04.537Z,13.60
2019-04-29T15:18:53.211Z,13.50
2019-04-29T15:21:43.700Z,13.40
2019-04-29T15:24:12.061Z,13.10
2019-04-29T15:26:41.472Z,13.20
2019-04-29T15:29:11.028Z,13.10
2019-04-29T15:31:42.581Z,13.10
2019-04-29T15:34:14.466Z,13.20
2019-04-29T15:36:43.307Z,13.10
2019-04-29T15:39:13.283Z,13.20
2019-04-29T15:41:42.763Z,13.10
2019-04-29T15:44:18.900Z,13.00
2019-04-29T15:46:47.077Z,12.90
2019-04-29T15:49:14.555Z,12.90
2019-04-29T15:51:48.663Z,12.80
2019-04-29T15:54:16.136Z,12.50
2019-04-29T15:56:46.109Z,12.50
2019-04-29T15:59:15.655Z,12.40
2019-04-29T16:01:45.067Z,12.40
2019-04-29T16:04:20.993Z,12.30
2019-04-29T16:07:17.103Z,11.90
2019-04-29T16:09:58.300Z,11.40
2019-04-29T16:12:35.751Z,11.10
2019-04-29T16:15:05.413Z,10.90
2019-04-29T16:17:38.055Z,10.80
2019-04-29T16:20:06.694Z,10.70
2019-04-29T16:22:39.127Z,10.70
2019-04-29T16:25:11.194Z,10.60
2019-04-29T16:27:41.722Z,10.70
2019-04-29T16:30:10.093Z,10.60
2019-04-29T16:32:42.230Z,10.60
2019-04-29T16:35:11.748Z,10.70
2019-04-29T16:37:41.159Z,10.70
2019-04-29T16:40:10.795Z,10.60
2019-04-29T16:43:05.594Z,10.50
2019-04-29T16:45:51.521Z,10.40
2019-04-29T16:48:16.339Z,10.30
2019-04-29T16:50:46.052Z,10.30
2019-04-29T16:53:15.706Z,10.10
2019-04-29T16:55:45.114Z,10.00
2019-04-29T17:00:52.999Z,10.10
2019-04-29T17:03:16.812Z,10.10
2019-04-29T17:05:46.183Z,10.00
2019-04-29T17:08:17.428Z,10.00
2019-04-29T17:10:53.825Z,10.00
2019-04-29T17:13:24.021Z,9.90
2019-04-29T17:15:53.882Z,9.90
2019-04-29T17:18:23.296Z,9.80
2019-04-29T17:20:52.749Z,9.80
2019-04-29T17:23:24.322Z,9.70
2019-04-29T17:25:53.182Z,9.60
2019-04-29T17:28:30.820Z,9.60
2019-04-29T17:31:28.803Z,9.50
2019-04-29T17:34:07.514Z,9.50
2019-04-29T17:35:17.088Z,10.00
2019-04-29T17:36:37.141Z,9.50
2019-04-29T17:39:07.906Z,9.40
2019-04-29T17:41:37.285Z,9.50
2019-04-29T17:44:28.563Z,9.40
2019-04-29T17:47:16.917Z,9.40
2019-04-29T17:49:57.306Z,9.40
2019-04-29T17:52:28.738Z,9.40
2019-04-29T17:55:11.022Z,9.30
2019-04-29T17:57:45.770Z,9.20
2019-04-29T18:00:43.850Z,9.20
2019-04-29T18:03:41.263Z,9.20
2019-04-29T18:06:26.260Z,9.20
2019-04-29T18:09:13.712Z,9.10
2019-04-29T18:11:51.888Z,9.10
2019-04-29T18:14:14.992Z,9.10
2019-04-29T18:16:47.813Z,9.00
2019-04-29T18:19:21.092Z,9.00
2019-04-29T18:22:07.350Z,8.90
2019-04-29T18:24:49.508Z,8.90
2019-04-29T18:27:20.424Z,8.90
2019-04-29T18:29:50.243Z,8.90
2019-04-29T18:32:19.638Z,8.90
2019-04-29T18:34:49.068Z,8.80
2019-04-29T18:37:18.468Z,8.90
2019-04-29T18:39:48.177Z,8.90
2019-04-29T18:42:17.561Z,8.90
2019-04-29T18:44:56.508Z,8.80
2019-04-29T18:47:22.594Z,8.70
2019-04-29T18:49:49.116Z,8.80
2019-04-29T18:52:25.744Z,8.80
2019-04-29T18:54:49.576Z,8.80
2019-04-29T18:57:27.682Z,8.80
2019-04-29T18:59:50.424Z,8.70
2019-04-29T19:02:19.833Z,8.70
2019-04-29T19:04:56.461Z,8.60
2019-04-29T19:07:26.305Z,8.60
2019-04-29T19:09:55.715Z,8.70
2019-04-29T19:12:25.417Z,8.70
2019-04-29T19:14:59.697Z,8.60
2019-04-29T19:17:26.209Z,8.60
2019-04-29T19:19:55.614Z,8.60
2019-04-29T19:22:25.864Z,8.70
2019-04-29T19:24:55.864Z,8.70
2019-04-29T19:27:25.978Z,8.60
2019-04-29T19:29:57.009Z,8.60
2019-04-29T19:32:26.410Z,8.60
2019-04-29T19:34:58.242Z,8.60
2019-04-29T19:37:32.091Z,8.50
2019-04-29T19:39:59.669Z,8.50
2019-04-29T19:42:35.367Z,8.50
2019-04-29T19:45:00.477Z,8.50
2019-04-29T19:47:30.186Z,8.50
2019-04-29T19:49:59.858Z,8.50
2019-04-29T19:52:31.742Z,8.50
2019-04-29T19:55:01.639Z,8.40
2019-04-29T19:57:31.395Z,8.50
2019-04-29T20:00:01.328Z,8.50
2019-04-29T20:02:31.432Z,8.40
2019-04-29T20:05:08.542Z,8.40
2019-04-29T20:07:42.350Z,8.40
2019-04-29T20:10:11.329Z,8.40
2019-04-29T20:12:40.907Z,8.40
2019-04-29T20:15:11.325Z,8.40
2019-04-29T20:18:06.484Z,8.40
2019-04-29T20:20:40.321Z,8.40
2019-04-29T20:23:09.876Z,8.40
2019-04-29T20:25:39.361Z,8.40
2019-04-29T20:28:17.256Z,8.40
2019-04-29T20:30:40.334Z,8.40
2019-04-29T20:33:12.580Z,8.40
2019-04-29T20:35:45.490Z,8.40
2019-04-29T20:38:12.002Z,8.40
2019-04-29T20:40:43.281Z,8.40
2019-04-29T20:43:12.617Z,8.30
2019-04-29T20:45:42.007Z,8.30
2019-04-29T20:48:17.866Z,8.30
2019-04-29T20:50:46.143Z,8.30
2019-04-29T20:53:21.951Z,8.30
2019-04-29T20:55:51.428Z,8.30
2019-04-29T20:58:23.672Z,8.20
2019-04-29T21:00:58.349Z,8.20
2019-04-29T21:03:29.800Z,8.20
2019-04-29T21:06:02.189Z,8.30
2019-04-29T21:08:25.965Z,8.30
2019-04-29T21:10:57.028Z,8.20
2019-04-29T21:13:57.901Z,8.30
2019-04-29T21:16:30.933Z,8.30
2019-04-29T21:19:08.743Z,8.20
2019-04-29T21:21:42.158Z,8.30
2019-04-29T21:24:13.770Z,8.30
2019-04-29T21:26:44.609Z,8.30
2019-04-29T21:29:18.088Z,8.40
2019-04-29T21:31:45.809Z,8.30
2019-04-29T21:34:17.381Z,8.40
2019-04-29T21:36:56.771Z,8.30
2019-04-29T21:39:46.847Z,8.30
2019-04-29T21:42:28.053Z,8.40
2019-04-29T21:44:58.587Z,8.40
2019-04-29T21:47:29.449Z,8.40
2019-04-29T21:49:58.880Z,8.40
2019-04-29T21:52:28.273Z,8.30
2019-04-29T21:54:57.698Z,8.30
2019-04-29T21:57:27.756Z,8.40
2019-04-29T21:59:57.159Z,8.40
2019-04-29T22:02:26.557Z,8.40
2019-04-29T22:04:55.969Z,8.40
2019-04-29T22:07:25.883Z,8.50
2019-04-29T22:09:55.755Z,8.40
2019-04-29T22:12:25.402Z,8.40
2019-04-29T22:14:56.462Z,8.40
2019-04-29T22:17:32.716Z,8.40
2019-04-29T22:20:03.818Z,8.40
2019-04-29T22:22:30.663Z,8.30
2019-04-29T22:25:05.782Z,8.40
2019-04-29T22:27:34.059Z,8.30
2019-04-29T22:30:01.530Z,8.30
2019-04-29T22:32:30.931Z,8.40
2019-04-29T22:35:01.585Z,8.30
2019-04-29T22:37:34.651Z,8.40
2019-04-29T22:40:03.226Z,8.40
2019-04-29T22:42:50.645Z,8.30
2019-04-29T22:45:20.245Z,8.30
2019-04-29T22:47:54.363Z,8.30
2019-04-29T22:50:20.969Z,8.30
2019-04-29T22:52:50.364Z,8.20
2019-04-29T22:55:19.775Z,8.30
2019-04-29T22:57:49.161Z,8.30
2019-04-29T23:00:26.276Z,8.20
2019-04-29T23:02:53.129Z,8.30
2019-04-29T23:05:23.584Z,8.20
2019-04-29T23:07:57.078Z,8.10
2019-04-29T23:10:27.922Z,8.10
2019-04-29T23:12:57.445Z,8.20
2019-04-29T23:15:27.099Z,8.20
2019-04-29T23:17:56.494Z,8.20
2019-04-29T23:20:47.905Z,8.10
2019-04-29T23:23:22.405Z,8.20
2019-04-29T23:25:53.024Z,8.20
2019-04-29T23:28:26.780Z,8.20
2019-04-29T23:30:53.583Z,8.20
2019-04-29T23:33:24.126Z,8.20
2019-04-29T23:35:56.087Z,8.20
2019-04-29T23:38:25.710Z,8.30
2019-04-29T23:40:56.412Z,8.20
2019-04-29T23:43:28.399Z,8.30
2019-04-29T23:46:00.579Z,8.30
2019-04-29T23:48:38.565Z,8.30
2019-04-29T23:50:59.459Z,8.30
2019-04-29T23:53:28.848Z,8.30
2019-04-29T23:56:00.131Z,8.20
2019-04-29T23:58:37.175Z,8.30
